createdAt,value
2019-06-27T00:00:09.300Z,99.30
2019-06-27T00:02:37.886Z,99.40
2019-06-27T00:05:07.376Z,99.30
2019-06-27T00:07:35.864Z,99.20
2019-06-27T00:10:07.309Z,99.50
2019-06-27T00:12:35.813Z,99.60
2019-06-27T00:15:05.056Z,99.60
2019-06-27T00:17:33.568Z,99.80
2019-06-27T00:20:02.176Z,99.70
2019-06-27T00:22:30.630Z,99.60
2019-06-27T00:24:59.128Z,99.70
2019-06-27T00:27:27.923Z,99.60
2019-06-27T00:29:56.402Z,99.70
2019-06-27T00:32:24.856Z,99.70
2019-06-27T00:34:53.332Z,99.80
2019-06-27T00:37:21.835Z,99.80
2019-06-27T00:39:50.582Z,99.80
2019-06-27T00:42:19.147Z,99.90
2019-06-27T00:44:47.687Z,99.90
2019-06-27T00:47:16.240Z,99.90
2019-06-27T00:49:44.727Z,99.90
2019-06-27T00:52:13.294Z,99.70
2019-06-27T00:54:41.760Z,99.80
2019-06-27T00:57:14.488Z,99.80
2019-06-27T00:59:40.501Z,99.90
2019-06-27T01:02:09.070Z,99.80
2019-06-27T01:04:37.567Z,99.60
2019-06-27T01:07:06.131Z,99.50
2019-06-27T01:09:34.709Z,99.80
2019-06-27T01:12:03.180Z,99.40
2019-06-27T01:14:31.648Z,99.50
2019-06-27T01:17:00.210Z,99.20
2019-06-27T01:19:28.867Z,99.10
2019-06-27T01:21:57.333Z,99.20
2019-06-27T01:24:25.796Z,99.00
2019-06-27T01:26:54.293Z,99.50
2019-06-27T01:29:22.795Z,99.40
2019-06-27T01:31:51.286Z,99.30
2019-06-27T01:34:19.762Z,99.10
2019-06-27T01:36:48.265Z,98.80
2019-06-27T01:39:16.723Z,99.10
2019-06-27T01:41:45.201Z,99.20
2019-06-27T01:44:31.861Z,99.10
2019-06-27T01:47:01.975Z,99.10
2019-06-27T01:49:30.440Z,99.30
2019-06-27T01:51:59.013Z,99.30
2019-06-27T01:54:27.542Z,98.70
2019-06-27T01:56:56.032Z,99.10
2019-06-27T01:59:24.503Z,99.40
2019-06-27T02:01:53.077Z,99.50
2019-06-27T02:04:21.557Z,99.70
2019-06-27T02:06:50.039Z,99.50
2019-06-27T02:09:18.590Z,99.60
2019-06-27T02:11:47.041Z,99.60
2019-06-27T02:14:15.683Z,99.50
2019-06-27T02:16:44.425Z,99.60
2019-06-27T02:19:12.921Z,99.50
2019-06-27T02:21:41.399Z,99.70
2019-06-27T02:24:09.880Z,99.60
2019-06-27T02:26:38.338Z,99.60
2019-06-27T02:29:07.178Z,99.60
2019-06-27T02:31:35.668Z,99.70
2019-06-27T02:34:06.816Z,99.80
2019-06-27T02:36:34.424Z,99.80
2019-06-27T02:39:02.970Z,99.80
2019-06-27T02:41:31.480Z,99.80
2019-06-27T02:43:59.944Z,99.90
2019-06-27T02:46:28.672Z,99.90
2019-06-27T02:48:57.410Z,99.90
2019-06-27T02:51:25.879Z,99.90
2019-06-27T02:53:54.692Z,99.90
2019-06-27T02:56:23.232Z,99.90
2019-06-27T02:58:51.729Z,99.90
2019-06-27T03:01:20.208Z,99.90
2019-06-27T03:03:48.698Z,99.90
2019-06-27T03:06:17.173Z,99.90
2019-06-27T03:08:45.928Z,99.90
2019-06-27T03:11:14.400Z,99.90
2019-06-27T03:13:42.967Z,99.90
2019-06-27T03:16:11.527Z,99.90
2019-06-27T03:18:39.978Z,99.90
2019-06-27T03:21:08.458Z,99.90
2019-06-27T03:23:37.210Z,99.90
2019-06-27T03:26:05.771Z,99.90
2019-06-27T03:28:51.096Z,99.90
2019-06-27T03:31:05.023Z,99.90
2019-06-27T03:33:33.603Z,99.90
2019-06-27T03:36:02.129Z,99.90
2019-06-27T03:38:30.679Z,99.90
2019-06-27T03:40:59.139Z,99.90
2019-06-27T03:43:27.638Z,99.90
2019-06-27T03:45:56.182Z,99.90
2019-06-27T03:48:24.665Z,99.90
2019-06-27T03:50:56.028Z,99.90
2019-06-27T03:53:23.409Z,99.90
2019-06-27T03:55:51.975Z,99.90
2019-06-27T03:58:20.694Z,99.90
2019-06-27T04:00:49.312Z,99.90
2019-06-27T04:03:17.781Z,99.90
2019-06-27T04:05:46.281Z,99.90
2019-06-27T04:08:14.738Z,99.90
2019-06-27T04:10:43.231Z,99.90
2019-06-27T04:13:11.973Z,99.90
2019-06-27T04:15:40.469Z,99.90
2019-06-27T04:18:08.953Z,99.90
2019-06-27T04:20:37.776Z,99.90
2019-06-27T04:23:06.261Z,99.90
2019-06-27T04:25:34.820Z,99.90
2019-06-27T04:28:03.289Z,99.90
2019-06-27T04:30:31.898Z,99.90
2019-06-27T04:33:00.406Z,99.90
2019-06-27T04:35:28.879Z,99.90
2019-06-27T04:37:57.703Z,99.90
2019-06-27T04:40:26.167Z,99.90
2019-06-27T04:42:54.906Z,99.90
2019-06-27T04:45:23.460Z,99.90
2019-06-27T04:47:51.947Z,99.90
2019-06-27T04:50:20.420Z,99.90
2019-06-27T04:52:49.045Z,99.90
2019-06-27T04:55:17.539Z,99.90
2019-06-27T04:57:46.174Z,99.90
2019-06-27T05:00:17.737Z,99.90
2019-06-27T05:02:46.240Z,99.90
2019-06-27T05:05:14.770Z,99.90
2019-06-27T05:07:43.230Z,99.90
2019-06-27T05:10:12.173Z,99.90
2019-06-27T05:12:40.909Z,99.90
2019-06-27T05:15:09.567Z,99.90
2019-06-27T05:17:38.031Z,99.90
2019-06-27T05:20:06.505Z,99.90
2019-06-27T05:22:34.989Z,99.90
2019-06-27T05:25:03.579Z,99.90
2019-06-27T05:27:32.109Z,99.90
2019-06-27T05:30:09.660Z,99.90
2019-06-27T05:32:30.792Z,99.90
2019-06-27T05:34:59.285Z,99.90
2019-06-27T05:37:27.755Z,99.90
2019-06-27T05:39:56.576Z,99.90
2019-06-27T05:42:25.082Z,99.90
2019-06-27T05:44:53.538Z,99.90
2019-06-27T05:47:22.029Z,99.90
2019-06-27T05:49:50.494Z,99.90
2019-06-27T05:52:18.966Z,99.90
2019-06-27T05:54:47.453Z,99.90
2019-06-27T05:57:15.961Z,99.90
2019-06-27T05:59:44.418Z,99.90
2019-06-27T06:02:12.874Z,99.90
2019-06-27T06:04:41.367Z,99.90
2019-06-27T06:07:09.874Z,99.90
2019-06-27T06:09:38.407Z,99.90
2019-06-27T06:12:07.010Z,99.90
2019-06-27T06:14:35.586Z,99.90
2019-06-27T06:17:04.117Z,99.90
2019-06-27T06:19:32.629Z,99.90
2019-06-27T06:22:01.156Z,99.90
2019-06-27T06:24:29.902Z,99.90
2019-06-27T06:26:58.364Z,99.90
2019-06-27T06:29:26.845Z,99.90
2019-06-27T06:31:55.329Z,99.90
2019-06-27T06:34:23.825Z,99.90
2019-06-27T06:36:52.380Z,99.90
2019-06-27T06:39:21.167Z,99.90
2019-06-27T06:41:49.724Z,99.90
2019-06-27T06:44:18.269Z,99.90
2019-06-27T06:46:46.809Z,99.90
2019-06-27T06:49:15.275Z,99.90
2019-06-27T06:51:43.767Z,99.90
2019-06-27T06:54:12.231Z,99.90
2019-06-27T06:56:40.693Z,99.90
2019-06-27T06:59:09.192Z,99.90
2019-06-27T07:01:37.674Z,99.90
2019-06-27T07:04:06.281Z,99.90
2019-06-27T07:06:34.787Z,99.90
2019-06-27T07:09:03.328Z,99.90
2019-06-27T07:11:31.835Z,99.90
2019-06-27T07:14:00.313Z,99.90
2019-06-27T07:16:28.783Z,99.90
2019-06-27T07:18:57.261Z,99.90
2019-06-27T07:21:26.009Z,99.90
2019-06-27T07:23:54.584Z,99.90
2019-06-27T07:26:23.135Z,99.90
2019-06-27T07:28:51.615Z,99.90
2019-06-27T07:31:20.149Z,99.90
2019-06-27T07:33:48.656Z,99.90
2019-06-27T07:36:17.196Z,99.90
2019-06-27T07:38:47.280Z,99.90
2019-06-27T07:41:16.000Z,99.90
2019-06-27T07:43:44.727Z,99.90
2019-06-27T07:46:24.688Z,99.90
2019-06-27T07:48:43.761Z,99.90
2019-06-27T07:51:12.303Z,99.90
2019-06-27T07:53:40.886Z,99.90
2019-06-27T07:56:09.402Z,99.90
2019-06-27T07:58:37.909Z,99.90
2019-06-27T08:01:06.414Z,99.90
2019-06-27T08:03:34.880Z,99.90
2019-06-27T08:06:03.465Z,99.90
2019-06-27T08:08:32.257Z,99.90
2019-06-27T08:11:00.767Z,99.90
2019-06-27T08:13:29.295Z,99.90
2019-06-27T08:15:57.786Z,99.90
2019-06-27T08:18:28.351Z,99.90
2019-06-27T08:20:56.591Z,99.90
2019-06-27T08:23:40.642Z,99.90
2019-06-27T08:25:55.328Z,99.90
2019-06-27T08:28:23.811Z,99.90
2019-06-27T08:30:52.295Z,99.90
2019-06-27T08:33:20.857Z,99.90
2019-06-27T08:35:49.350Z,99.90
2019-06-27T08:38:17.948Z,99.90
2019-06-27T08:40:46.471Z,99.90
2019-06-27T08:43:14.941Z,99.90
2019-06-27T08:45:43.445Z,99.90
2019-06-27T08:48:11.916Z,99.90
2019-06-27T08:50:40.397Z,99.90
2019-06-27T08:53:08.886Z,99.90
2019-06-27T08:55:37.416Z,99.90
2019-06-27T08:58:05.930Z,99.90
2019-06-27T09:00:34.423Z,99.90
2019-06-27T09:03:03.211Z,99.90
2019-06-27T09:05:31.714Z,99.90
2019-06-27T09:08:00.485Z,99.90
2019-06-27T09:10:29.118Z,99.90
2019-06-27T09:12:57.845Z,99.90
2019-06-27T09:15:26.425Z,99.90
2019-06-27T09:17:54.982Z,99.90
2019-06-27T09:20:23.537Z,99.90
2019-06-27T09:22:52.035Z,99.90
2019-06-27T09:25:20.791Z,99.90
2019-06-27T09:27:49.260Z,99.90
2019-06-27T09:30:18.068Z,99.90
2019-06-27T09:32:46.617Z,99.90
2019-06-27T09:35:15.323Z,99.90
2019-06-27T09:37:43.810Z,99.90
2019-06-27T09:40:12.534Z,99.90
2019-06-27T09:42:41.181Z,99.90
2019-06-27T09:45:10.363Z,99.90
2019-06-27T09:47:38.911Z,99.90
2019-06-27T09:50:08.310Z,99.90
2019-06-27T09:52:36.874Z,99.90
2019-06-27T09:55:06.423Z,99.90
2019-06-27T09:57:35.105Z,99.90
2019-06-27T10:00:08.666Z,99.90
2019-06-27T10:02:41.825Z,99.90
2019-06-27T10:05:07.920Z,99.90
2019-06-27T10:07:36.474Z,99.90
2019-06-27T10:10:06.275Z,99.90
2019-06-27T10:12:42.223Z,99.90
2019-06-27T10:15:07.343Z,99.90
2019-06-27T10:17:36.027Z,99.90
2019-06-27T10:20:07.272Z,99.90
2019-06-27T10:22:35.825Z,99.80
2019-06-27T10:25:06.341Z,99.40
2019-06-27T10:27:34.800Z,99.90
2019-06-27T10:30:04.940Z,99.90
2019-06-27T10:32:33.408Z,99.50
2019-06-27T10:35:01.899Z,99.80
2019-06-27T10:37:30.376Z,99.90
2019-06-27T10:39:58.855Z,99.90
2019-06-27T10:42:27.580Z,99.90
2019-06-27T10:44:56.156Z,98.40
2019-06-27T10:47:24.633Z,99.70
2019-06-27T10:49:54.728Z,99.20
2019-06-27T10:52:23.187Z,98.70
2019-06-27T10:54:51.661Z,98.00
2019-06-27T10:57:20.150Z,98.30
2019-06-27T10:59:48.603Z,98.00
2019-06-27T11:02:17.113Z,98.10
2019-06-27T11:04:45.596Z,97.90
2019-06-27T11:07:14.103Z,97.60
2019-06-27T11:09:42.585Z,96.60
2019-06-27T11:12:11.043Z,97.40
2019-06-27T11:14:39.548Z,96.90
2019-06-27T11:17:08.081Z,97.60
2019-06-27T11:19:51.528Z,97.90
2019-06-27T11:22:06.790Z,98.30
2019-06-27T11:24:36.860Z,97.30
2019-06-27T11:27:05.399Z,96.70
2019-06-27T11:29:33.895Z,94.50
2019-06-27T11:32:02.692Z,96.00
2019-06-27T11:34:34.832Z,95.70
2019-06-27T11:37:01.433Z,95.40
2019-06-27T11:39:30.172Z,96.30
2019-06-27T11:41:58.634Z,95.80
2019-06-27T11:44:27.123Z,96.30
2019-06-27T11:46:55.587Z,95.40
2019-06-27T11:49:24.143Z,96.20
2019-06-27T11:51:52.661Z,95.30
2019-06-27T11:54:21.154Z,94.50
2019-06-27T11:56:49.645Z,96.00
2019-06-27T11:59:18.114Z,94.90
2019-06-27T12:01:46.592Z,95.50
2019-06-27T12:04:15.331Z,96.00
2019-06-27T12:06:43.813Z,96.60
2019-06-27T12:09:12.296Z,96.70
2019-06-27T12:11:41.021Z,96.00
2019-06-27T12:14:09.503Z,96.30
2019-06-27T12:16:38.264Z,95.90
2019-06-27T12:19:06.741Z,96.60
2019-06-27T12:21:35.291Z,96.90
2019-06-27T12:24:03.748Z,96.70
2019-06-27T12:26:32.230Z,96.90
2019-06-27T12:29:00.722Z,96.90
2019-06-27T12:31:29.181Z,96.70
2019-06-27T12:34:06.797Z,96.70
2019-06-27T12:36:28.145Z,96.50
2019-06-27T12:38:56.602Z,96.60
2019-06-27T12:41:25.095Z,97.00
2019-06-27T12:43:53.555Z,97.40
2019-06-27T12:46:22.431Z,97.90
2019-06-27T12:48:50.885Z,97.30
2019-06-27T12:51:19.376Z,97.10
2019-06-27T12:53:47.857Z,97.90
2019-06-27T12:56:16.438Z,97.80
2019-06-27T12:58:44.923Z,97.60
2019-06-27T13:01:13.421Z,97.40
2019-06-27T13:03:41.951Z,97.40
2019-06-27T13:06:10.438Z,97.70
2019-06-27T13:08:38.927Z,97.50
2019-06-27T13:11:07.400Z,97.60
2019-06-27T13:13:35.878Z,97.40
2019-06-27T13:16:04.414Z,97.20
2019-06-27T13:18:33.164Z,97.30
2019-06-27T13:21:02.149Z,97.40
2019-06-27T13:23:30.644Z,96.90
2019-06-27T13:25:59.182Z,95.60
2019-06-27T13:28:27.961Z,96.40
2019-06-27T13:30:56.504Z,95.60
2019-06-27T13:33:24.967Z,96.20
2019-06-27T13:35:53.608Z,94.70
2019-06-27T13:38:22.068Z,94.10
2019-06-27T13:40:50.628Z,94.80
2019-06-27T13:43:19.115Z,94.90
2019-06-27T13:45:47.658Z,94.90
2019-06-27T13:48:16.168Z,94.40
2019-06-27T13:50:44.671Z,92.60
2019-06-27T13:53:13.122Z,93.50
2019-06-27T13:55:41.593Z,93.50
2019-06-27T13:58:10.096Z,93.00
2019-06-27T14:00:43.926Z,91.00
2019-06-27T14:03:12.639Z,90.90
2019-06-27T14:05:41.671Z,92.40
2019-06-27T14:08:10.404Z,90.60
2019-06-27T14:10:39.126Z,91.00
2019-06-27T14:13:07.978Z,92.00
2019-06-27T14:15:36.516Z,90.40
2019-06-27T14:18:05.350Z,91.40
2019-06-27T14:20:33.973Z,90.80
2019-06-27T14:23:02.522Z,91.80
2019-06-27T14:25:30.988Z,90.80
2019-06-27T14:27:59.475Z,90.40
2019-06-27T14:30:28.589Z,91.10
2019-06-27T14:32:57.339Z,89.50
2019-06-27T14:35:25.830Z,90.50
2019-06-27T14:37:54.572Z,89.00
2019-06-27T14:40:23.375Z,87.20
2019-06-27T14:42:51.848Z,88.20
2019-06-27T14:45:20.380Z,87.40
2019-06-27T14:47:48.883Z,85.20
2019-06-27T14:50:17.419Z,86.60
2019-06-27T14:52:45.928Z,86.40
2019-06-27T14:55:15.050Z,88.00
2019-06-27T14:57:44.154Z,83.80
2019-06-27T15:00:12.925Z,86.30
2019-06-27T15:02:41.446Z,84.80
2019-06-27T15:05:10.921Z,84.00
2019-06-27T15:07:39.388Z,84.10
2019-06-27T15:10:08.230Z,83.60
2019-06-27T15:12:36.790Z,84.80
2019-06-27T15:15:06.414Z,84.60
2019-06-27T15:17:34.902Z,83.10
2019-06-27T15:20:06.853Z,84.80
2019-06-27T15:22:35.360Z,83.30
2019-06-27T15:25:05.590Z,83.50
2019-06-27T15:27:34.069Z,84.50
2019-06-27T15:30:03.073Z,82.70
2019-06-27T15:32:31.672Z,84.30
2019-06-27T15:35:00.186Z,82.60
2019-06-27T15:37:28.710Z,83.70
2019-06-27T15:39:57.191Z,82.90
2019-06-27T15:42:25.946Z,82.10
2019-06-27T15:44:54.442Z,82.40
2019-06-27T15:47:22.934Z,83.30
2019-06-27T15:49:51.445Z,81.70
2019-06-27T15:52:20.000Z,83.40
2019-06-27T15:54:48.853Z,82.20
2019-06-27T15:57:17.388Z,83.30
2019-06-27T15:59:45.894Z,84.80
2019-06-27T16:02:14.521Z,84.70
2019-06-27T16:04:43.242Z,83.90
2019-06-27T16:07:11.759Z,84.00
2019-06-27T16:09:40.253Z,83.80
2019-06-27T16:12:08.842Z,83.00
2019-06-27T16:14:37.389Z,84.80
2019-06-27T16:17:05.915Z,85.60
2019-06-27T16:19:34.479Z,85.80
2019-06-27T16:22:03.121Z,86.30
2019-06-27T16:24:31.611Z,88.70
2019-06-27T16:27:00.242Z,82.60
2019-06-27T16:29:28.765Z,83.90
2019-06-27T16:31:57.316Z,83.80
2019-06-27T16:34:28.807Z,84.40
2019-06-27T16:36:56.034Z,84.10
2019-06-27T16:39:24.788Z,82.10
2019-06-27T16:41:53.251Z,82.70
2019-06-27T16:44:21.791Z,84.60
2019-06-27T16:46:50.266Z,81.30
2019-06-27T16:49:18.747Z,79.80
2019-06-27T16:51:47.198Z,79.50
2019-06-27T16:54:15.720Z,80.60
2019-06-27T16:56:44.242Z,79.50
2019-06-27T16:59:12.720Z,77.80
2019-06-27T17:01:41.251Z,81.00
2019-06-27T17:04:09.732Z,79.90
2019-06-27T17:06:42.578Z,80.70
2019-06-27T17:09:08.417Z,79.60
2019-06-27T17:11:37.155Z,77.90
2019-06-27T17:14:05.857Z,76.70
2019-06-27T17:16:34.335Z,76.80
2019-06-27T17:19:02.868Z,79.30
2019-06-27T17:21:31.607Z,81.40
2019-06-27T17:24:00.097Z,79.50
2019-06-27T17:26:28.578Z,80.20
2019-06-27T17:28:57.050Z,77.70
2019-06-27T17:31:25.546Z,78.10
2019-06-27T17:33:54.008Z,79.70
2019-06-27T17:36:22.480Z,78.40
2019-06-27T17:38:50.948Z,79.40
2019-06-27T17:41:19.711Z,80.90
2019-06-27T17:43:48.168Z,79.30
2019-06-27T17:46:16.922Z,77.50
2019-06-27T17:48:45.391Z,76.80
2019-06-27T17:51:13.872Z,79.40
2019-06-27T17:53:43.234Z,77.00
2019-06-27T17:56:11.853Z,75.00
2019-06-27T17:58:40.327Z,74.40
2019-06-27T18:01:08.953Z,76.00
2019-06-27T18:03:37.424Z,80.50
2019-06-27T18:06:05.932Z,82.20
2019-06-27T18:08:34.413Z,81.10
2019-06-27T18:11:02.943Z,81.30
2019-06-27T18:13:31.439Z,82.60
2019-06-27T18:15:59.917Z,83.90
2019-06-27T18:18:28.401Z,85.60
2019-06-27T18:20:56.871Z,83.70
2019-06-27T18:23:25.360Z,85.30
2019-06-27T18:25:53.807Z,86.10
2019-06-27T18:28:22.292Z,85.50
2019-06-27T18:30:50.771Z,83.70
2019-06-27T18:33:19.253Z,84.90
2019-06-27T18:35:47.711Z,86.20
2019-06-27T18:38:16.195Z,87.80
2019-06-27T18:40:44.660Z,88.10
2019-06-27T18:43:13.160Z,85.10
2019-06-27T18:45:41.727Z,86.80
2019-06-27T18:48:10.191Z,86.80
2019-06-27T18:50:38.653Z,87.10
2019-06-27T18:53:07.201Z,81.60
2019-06-27T18:55:35.671Z,83.60
2019-06-27T18:58:04.234Z,83.80
2019-06-27T19:00:32.805Z,83.10
2019-06-27T19:03:01.273Z,83.40
2019-06-27T19:05:30.290Z,83.60
2019-06-27T19:07:58.905Z,83.30
2019-06-27T19:10:27.619Z,82.60
2019-06-27T19:12:56.101Z,80.80
2019-06-27T19:15:24.837Z,81.60
2019-06-27T19:17:53.302Z,82.00
2019-06-27T19:20:32.746Z,81.70
2019-06-27T19:23:12.195Z,81.00
2019-06-27T19:25:54.271Z,81.20
2019-06-27T19:28:22.827Z,81.60
2019-06-27T19:30:51.307Z,81.50
2019-06-27T19:33:20.042Z,80.10
2019-06-27T19:35:48.660Z,80.70
2019-06-27T19:38:17.126Z,80.50
2019-06-27T19:40:45.625Z,81.10
2019-06-27T19:43:27.248Z,81.30
2019-06-27T19:45:44.306Z,80.70
2019-06-27T19:48:12.756Z,81.30
2019-06-27T19:50:41.321Z,80.80
2019-06-27T19:53:09.800Z,80.10
2019-06-27T19:55:38.395Z,79.80
2019-06-27T19:58:07.157Z,80.10
2019-06-27T20:00:35.865Z,79.60
2019-06-27T20:03:04.865Z,79.90
2019-06-27T20:05:33.343Z,79.20
2019-06-27T20:08:17.396Z,80.80
2019-06-27T20:10:32.280Z,79.80
2019-06-27T20:13:00.777Z,80.50
2019-06-27T20:15:29.257Z,81.30
2019-06-27T20:17:57.725Z,81.20
2019-06-27T20:20:26.201Z,80.30
2019-06-27T20:22:55.030Z,80.60
2019-06-27T20:25:23.497Z,80.60
2019-06-27T20:27:52.252Z,80.60
2019-06-27T20:30:21.418Z,81.80
2019-06-27T20:32:49.891Z,81.30
2019-06-27T20:35:18.342Z,81.20
2019-06-27T20:37:46.892Z,81.00
2019-06-27T20:40:16.980Z,81.10
2019-06-27T20:42:45.521Z,80.80
2019-06-27T20:45:14.705Z,80.30
2019-06-27T20:47:43.223Z,82.30
2019-06-27T20:50:12.637Z,81.30
2019-06-27T20:52:41.095Z,81.50
2019-06-27T20:55:09.693Z,81.10
2019-06-27T20:57:38.208Z,80.90
2019-06-27T21:00:07.027Z,81.60
2019-06-27T21:02:35.505Z,80.90
2019-06-27T21:05:05.335Z,81.10
2019-06-27T21:07:33.918Z,81.50
2019-06-27T21:10:02.450Z,82.20
2019-06-27T21:12:31.352Z,81.30
2019-06-27T21:14:59.880Z,81.10
2019-06-27T21:17:28.387Z,81.90
2019-06-27T21:19:56.866Z,81.60
2019-06-27T21:22:25.405Z,79.80
2019-06-27T21:24:53.889Z,80.20
2019-06-27T21:27:22.440Z,80.20
2019-06-27T21:29:50.912Z,80.60
2019-06-27T21:32:30.929Z,79.90
2019-06-27T21:34:49.601Z,79.50
2019-06-27T21:37:18.352Z,79.90
2019-06-27T21:39:46.917Z,79.70
2019-06-27T21:42:15.451Z,80.00
2019-06-27T21:44:43.928Z,80.20
2019-06-27T21:47:12.392Z,80.30
2019-06-27T21:49:40.874Z,79.40
2019-06-27T21:52:09.345Z,79.20
2019-06-27T21:54:37.914Z,77.70
2019-06-27T21:57:06.470Z,78.30
2019-06-27T21:59:35.025Z,79.10
2019-06-27T22:02:03.585Z,78.50
2019-06-27T22:04:32.101Z,73.80
2019-06-27T22:07:02.254Z,78.30
2019-06-27T22:09:30.811Z,78.40
2019-06-27T22:11:59.343Z,80.20
2019-06-27T22:14:27.832Z,78.60
2019-06-27T22:16:56.291Z,78.80
2019-06-27T22:19:24.773Z,75.60
2019-06-27T22:21:53.496Z,76.60
2019-06-27T22:24:21.977Z,77.80
2019-06-27T22:26:50.539Z,78.40
2019-06-27T22:29:19.034Z,77.90
2019-06-27T22:31:47.502Z,79.50
2019-06-27T22:34:16.046Z,79.30
2019-06-27T22:36:44.546Z,78.60
2019-06-27T22:39:39.970Z,77.10
2019-06-27T22:42:18.962Z,78.50
2019-06-27T22:45:05.027Z,78.80
2019-06-27T22:47:51.763Z,79.90
2019-06-27T22:50:23.320Z,76.90
2019-06-27T22:52:56.113Z,79.20
2019-06-27T22:55:26.229Z,78.60
2019-06-27T22:57:54.695Z,79.70
2019-06-27T23:00:23.175Z,80.60
2019-06-27T23:02:51.715Z,79.20
2019-06-27T23:05:20.403Z,77.70
2019-06-27T23:07:48.923Z,79.40
2019-06-27T23:10:17.610Z,80.10
2019-06-27T23:12:46.370Z,80.20
2019-06-27T23:15:14.896Z,80.10
2019-06-27T23:17:43.717Z,81.70
2019-06-27T23:20:12.509Z,80.50
2019-06-27T23:22:40.974Z,80.90
2019-06-27T23:25:09.599Z,81.30
2019-06-27T23:27:38.069Z,81.40
2019-06-27T23:30:07.100Z,81.40
2019-06-27T23:32:35.589Z,81.20
2019-06-27T23:35:04.502Z,80.60
2019-06-27T23:37:33.053Z,81.30
2019-06-27T23:40:13.524Z,81.00
2019-06-27T23:42:31.759Z,83.10
2019-06-27T23:45:00.314Z,83.80
2019-06-27T23:47:28.796Z,81.90
2019-06-27T23:49:58.891Z,82.40
2019-06-27T23:52:27.356Z,81.70
2019-06-27T23:54:55.954Z,80.50
2019-06-27T23:57:24.470Z,80.50
2019-06-27T23:59:52.931Z,80.70
